sensor_id;sensor_type;location;lat;lon;timestamp;pressure;altitude;pressure_sealevel;temperature;humidity
77723;BME280;67811;42.656;23.394;2024-02-14T00:01:47;94766.91;;;5.05;77.67
77723;BME280;67811;42.656;23.394;2024-02-14T00:05:53;94771.69;;;5.09;77.94
77723;BME280;67811;42.656;23.394;2024-02-14T00:09:58;94778.75;;;5.09;77.74
77723;BME280;67811;42.656;23.394;2024-02-14T00:14:03;94783.19;;;5.08;77.68
77723;BME280;67811;42.656;23.394;2024-02-14T00:18:08;94783.34;;;5.07;78.02
77723;BME280;67811;42.656;23.394;2024-02-14T00:22:14;94784.53;;;5.12;77.53
77723;BME280;67811;42.656;23.394;2024-02-14T00:26:19;94774.31;;;5.09;77.71
77723;BME280;67811;42.656;23.394;2024-02-14T00:30:24;94782.88;;;5.11;78.02
77723;BME280;67811;42.656;23.394;2024-02-14T00:34:30;94792.22;;;5.06;77.88
77723;BME280;67811;42.656;23.394;2024-02-14T00:38:35;94793.69;;;5.08;77.79
77723;BME280;67811;42.656;23.394;2024-02-14T00:42:40;94789.44;;;5.07;77.67
77723;BME280;67811;42.656;23.394;2024-02-14T00:46:46;94787.97;;;5.13;77.52
77723;BME280;67811;42.656;23.394;2024-02-14T00:50:51;94798.16;;;5.16;77.76
77723;BME280;67811;42.656;23.394;2024-02-14T00:54:56;94787.16;;;5.12;77.53
77723;BME280;67811;42.656;23.394;2024-02-14T00:59:01;94797.19;;;5.17;77.80
77723;BME280;67811;42.656;23.394;2024-02-14T01:03:07;94796.66;;;5.13;77.43
77723;BME280;67811;42.656;23.394;2024-02-14T01:07:12;94794.22;;;5.12;77.22
77723;BME280;67811;42.656;23.394;2024-02-14T01:11:17;94797.31;;;5.07;77.39
77723;BME280;67811;42.656;23.394;2024-02-14T01:15:22;94794.03;;;5.13;77.59
77723;BME280;67811;42.656;23.394;2024-02-14T01:19:28;94792.72;;;5.09;77.57
77723;BME280;67811;42.656;23.394;2024-02-14T01:23:33;94800.13;;;5.14;77.02
77723;BME280;67811;42.656;23.394;2024-02-14T01:27:38;94792.41;;;5.12;77.29
77723;BME280;67811;42.656;23.394;2024-02-14T01:31:43;94788.63;;;5.15;77.14
77723;BME280;67811;42.656;23.394;2024-02-14T01:35:49;94792.59;;;5.19;76.93
77723;BME280;67811;42.656;23.394;2024-02-14T01:39:54;94786.00;;;5.15;76.72
77723;BME280;67811;42.656;23.394;2024-02-14T01:43:59;94797.31;;;5.15;76.59
77723;BME280;67811;42.656;23.394;2024-02-14T01:48:05;94787.81;;;5.14;76.73
77723;BME280;67811;42.656;23.394;2024-02-14T01:52:11;94789.44;;;5.07;77.30
77723;BME280;67811;42.656;23.394;2024-02-14T01:56:17;94790.78;;;5.11;76.77
77723;BME280;67811;42.656;23.394;2024-02-14T02:00:23;94782.56;;;5.14;76.70
77723;BME280;67811;42.656;23.394;2024-02-14T02:04:28;94793.88;;;5.07;76.69
77723;BME280;67811;42.656;23.394;2024-02-14T02:08:34;94795.97;;;5.03;76.93
77723;BME280;67811;42.656;23.394;2024-02-14T02:12:39;94793.69;;;5.08;75.89
77723;BME280;67811;42.656;23.394;2024-02-14T02:16:44;94800.25;;;5.04;76.54
77723;BME280;67811;42.656;23.394;2024-02-14T02:20:50;94808.13;;;5.04;76.24
77723;BME280;67811;42.656;23.394;2024-02-14T02:24:55;94798.28;;;5.06;75.75
77723;BME280;67811;42.656;23.394;2024-02-14T02:29:00;94807.00;;;5.07;76.29
77723;BME280;67811;42.656;23.394;2024-02-14T02:33:05;94804.84;;;5.02;76.08
77723;BME280;67811;42.656;23.394;2024-02-14T02:37:11;94811.59;;;5.13;75.72
77723;BME280;67811;42.656;23.394;2024-02-14T02:41:16;94810.94;;;5.11;76.05
77723;BME280;67811;42.656;23.394;2024-02-14T02:45:22;94822.59;;;5.08;75.38
77723;BME280;67811;42.656;23.394;2024-02-14T02:49:27;94832.44;;;5.06;75.43
77723;BME280;67811;42.656;23.394;2024-02-14T02:53:32;94830.16;;;5.11;75.11
77723;BME280;67811;42.656;23.394;2024-02-14T02:57:38;94834.06;;;5.07;75.24
77723;BME280;67811;42.656;23.394;2024-02-14T03:01:43;94833.91;;;5.09;75.17
77723;BME280;67811;42.656;23.394;2024-02-14T03:05:48;94837.81;;;5.05;75.15
77723;BME280;67811;42.656;23.394;2024-02-14T03:09:53;94843.44;;;5.10;75.54
77723;BME280;67811;42.656;23.394;2024-02-14T03:13:58;94836.19;;;5.03;75.04
77723;BME280;67811;42.656;23.394;2024-02-14T03:18:04;94846.84;;;5.02;75.17
77723;BME280;67811;42.656;23.394;2024-02-14T03:22:09;94844.84;;;4.96;74.79
77723;BME280;67811;42.656;23.394;2024-02-14T03:26:14;94859.63;;;4.97;74.64
77723;BME280;67811;42.656;23.394;2024-02-14T03:30:20;94864.72;;;4.98;75.23
77723;BME280;67811;42.656;23.394;2024-02-14T03:34:25;94865.53;;;4.99;74.85
77723;BME280;67811;42.656;23.394;2024-02-14T03:38:30;94870.16;;;5.05;74.63
77723;BME280;67811;42.656;23.394;2024-02-14T03:42:36;94876.19;;;4.97;74.86
77723;BME280;67811;42.656;23.394;2024-02-14T03:46:41;94878.81;;;4.97;74.66
77723;BME280;67811;42.656;23.394;2024-02-14T03:50:46;94883.91;;;4.99;74.96
77723;BME280;67811;42.656;23.394;2024-02-14T03:54:52;94888.88;;;5.02;73.88
77723;BME280;67811;42.656;23.394;2024-02-14T03:58:58;94891.94;;;4.97;74.15
77723;BME280;67811;42.656;23.394;2024-02-14T04:03:04;94884.91;;;4.98;73.95
77723;BME280;67811;42.656;23.394;2024-02-14T04:07:09;94891.13;;;4.97;73.96
77723;BME280;67811;42.656;23.394;2024-02-14T04:11:14;94895.41;;;4.98;73.44
77723;BME280;67811;42.656;23.394;2024-02-14T04:15:19;94902.28;;;4.99;73.69
77723;BME280;67811;42.656;23.394;2024-02-14T04:19:25;94908.84;;;4.95;74.09
77723;BME280;67811;42.656;23.394;2024-02-14T04:23:30;94910.63;;;4.94;73.67
77723;BME280;67811;42.656;23.394;2024-02-14T04:27:35;94916.38;;;4.90;74.17
77723;BME280;67811;42.656;23.394;2024-02-14T04:31:41;94910.44;;;4.88;73.47
77723;BME280;67811;42.656;23.394;2024-02-14T04:35:46;94911.72;;;4.84;74.07
77723;BME280;67811;42.656;23.394;2024-02-14T04:39:51;94909.09;;;4.84;73.83
77723;BME280;67811;42.656;23.394;2024-02-14T04:43:56;94920.44;;;4.84;74.24
77723;BME280;67811;42.656;23.394;2024-02-14T04:48:02;94927.13;;;4.79;74.59
77723;BME280;67811;42.656;23.394;2024-02-14T04:52:07;94925.31;;;4.79;74.30
77723;BME280;67811;42.656;23.394;2024-02-14T04:56:12;94935.00;;;4.79;74.62
77723;BME280;67811;42.656;23.394;2024-02-14T05:00:18;94949.75;;;4.80;74.93
77723;BME280;67811;42.656;23.394;2024-02-14T05:04:23;94946.44;;;4.78;75.08
77723;BME280;67811;42.656;23.394;2024-02-14T05:08:28;94954.47;;;4.76;74.67
77723;BME280;67811;42.656;23.394;2024-02-14T05:12:34;94963.19;;;4.76;75.27
77723;BME280;67811;42.656;23.394;2024-02-14T05:16:39;94958.63;;;4.79;75.21
77723;BME280;67811;42.656;23.394;2024-02-14T05:20:44;94962.19;;;4.78;74.74
77723;BME280;67811;42.656;23.394;2024-02-14T05:24:49;94988.31;;;4.79;75.07
77723;BME280;67811;42.656;23.394;2024-02-14T05:28:55;94988.69;;;4.84;74.54
77723;BME280;67811;42.656;23.394;2024-02-14T05:33:00;94989.97;;;4.80;75.18
77723;BME280;67811;42.656;23.394;2024-02-14T05:37:05;95006.00;;;4.77;74.86
77723;BME280;67811;42.656;23.394;2024-02-14T05:41:10;95011.41;;;4.75;74.89
77723;BME280;67811;42.656;23.394;2024-02-14T05:45:16;95006.69;;;4.79;74.70
77723;BME280;67811;42.656;23.394;2024-02-14T05:49:22;95012.91;;;4.78;74.93
77723;BME280;67811;42.656;23.394;2024-02-14T05:53:27;95021.00;;;4.85;74.60
77723;BME280;67811;42.656;23.394;2024-02-14T05:57:32;95028.50;;;4.80;74.56
77723;BME280;67811;42.656;23.394;2024-02-14T06:01:37;95030.44;;;4.78;73.87
77723;BME280;67811;42.656;23.394;2024-02-14T06:05:43;95042.25;;;4.73;74.37
77723;BME280;67811;42.656;23.394;2024-02-14T06:09:48;95040.38;;;4.84;74.73
77723;BME280;67811;42.656;23.394;2024-02-14T06:13:53;95045.84;;;4.72;73.97
77723;BME280;67811;42.656;23.394;2024-02-14T06:17:58;95053.03;;;4.70;73.41
77723;BME280;67811;42.656;23.394;2024-02-14T06:22:04;95057.06;;;4.65;73.38
77723;BME280;67811;42.656;23.394;2024-02-14T06:26:09;95063.00;;;4.67;73.68
77723;BME280;67811;42.656;23.394;2024-02-14T06:30:14;95073.47;;;4.67;73.17
77723;BME280;67811;42.656;23.394;2024-02-14T06:34:20;95069.31;;;4.74;72.96
77723;BME280;67811;42.656;23.394;2024-02-14T06:38:25;95076.97;;;4.67;72.47
77723;BME280;67811;42.656;23.394;2024-02-14T06:42:30;95066.47;;;4.67;72.18
77723;BME280;67811;42.656;23.394;2024-02-14T06:46:35;95083.63;;;4.62;72.24
77723;BME280;67811;42.656;23.394;2024-02-14T06:50:41;95080.53;;;4.66;72.59
77723;BME280;67811;42.656;23.394;2024-02-14T06:54:46;95081.66;;;4.64;72.29
77723;BME280;67811;42.656;23.394;2024-02-14T06:58:51;95092.56;;;4.69;71.82
77723;BME280;67811;42.656;23.394;2024-02-14T07:02:56;95094.59;;;4.75;71.78
77723;BME280;67811;42.656;23.394;2024-02-14T07:07:02;95095.41;;;4.75;71.44
77723;BME280;67811;42.656;23.394;2024-02-14T07:11:07;95102.28;;;4.76;70.93
77723;BME280;67811;42.656;23.394;2024-02-14T07:15:12;95099.22;;;4.81;70.96
77723;BME280;67811;42.656;23.394;2024-02-14T07:19:17;95113.88;;;4.84;70.51
77723;BME280;67811;42.656;23.394;2024-02-14T07:23:23;95116.50;;;4.84;70.25
77723;BME280;67811;42.656;23.394;2024-02-14T07:27:28;95118.16;;;4.85;69.60
77723;BME280;67811;42.656;23.394;2024-02-14T07:31:33;95119.47;;;4.89;69.25
77723;BME280;67811;42.656;23.394;2024-02-14T07:35:39;95117.72;;;4.89;69.57
77723;BME280;67811;42.656;23.394;2024-02-14T07:39:44;95111.09;;;5.03;69.02
77723;BME280;67811;42.656;23.394;2024-02-14T07:43:49;95128.94;;;4.99;68.20
77723;BME280;67811;42.656;23.394;2024-02-14T07:47:54;95127.44;;;4.97;68.64
77723;BME280;67811;42.656;23.394;2024-02-14T07:52:00;95136.81;;;4.99;68.67
77723;BME280;67811;42.656;23.394;2024-02-14T07:56:05;95131.19;;;4.94;68.41
77723;BME280;67811;42.656;23.394;2024-02-14T08:00:11;95140.28;;;5.00;68.39
77723;BME280;67811;42.656;23.394;2024-02-14T08:04:16;95143.09;;;4.89;68.63
77723;BME280;67811;42.656;23.394;2024-02-14T08:08:21;95143.38;;;4.95;68.80
77723;BME280;67811;42.656;23.394;2024-02-14T08:12:27;95133.38;;;4.99;68.44
77723;BME280;67811;42.656;23.394;2024-02-14T08:16:32;95162.06;;;4.83;68.96
77723;BME280;67811;42.656;23.394;2024-02-14T08:20:38;95157.91;;;4.90;69.18
77723;BME280;67811;42.656;23.394;2024-02-14T08:24:43;95162.56;;;4.96;68.91
77723;BME280;67811;42.656;23.394;2024-02-14T08:28:49;95160.44;;;4.82;68.08
77723;BME280;67811;42.656;23.394;2024-02-14T08:32:54;95166.38;;;4.84;68.16
77723;BME280;67811;42.656;23.394;2024-02-14T08:36:59;95170.09;;;4.81;68.17
77723;BME280;67811;42.656;23.394;2024-02-14T08:41:05;95176.19;;;4.82;68.47
77723;BME280;67811;42.656;23.394;2024-02-14T08:45:10;95172.19;;;4.78;67.57
77723;BME280;67811;42.656;23.394;2024-02-14T08:49:15;95176.63;;;4.77;68.44
77723;BME280;67811;42.656;23.394;2024-02-14T08:53:21;95184.06;;;4.82;67.55
77723;BME280;67811;42.656;23.394;2024-02-14T08:57:26;95173.88;;;4.79;67.46
77723;BME280;67811;42.656;23.394;2024-02-14T09:01:31;95179.56;;;4.74;67.49
77723;BME280;67811;42.656;23.394;2024-02-14T09:05:36;95184.66;;;4.75;67.35
77723;BME280;67811;42.656;23.394;2024-02-14T09:09:42;95191.03;;;4.73;67.85
77723;BME280;67811;42.656;23.394;2024-02-14T09:13:47;95186.59;;;4.73;67.75
77723;BME280;67811;42.656;23.394;2024-02-14T09:17:52;95199.34;;;4.68;67.75
77723;BME280;67811;42.656;23.394;2024-02-14T09:21:57;95201.22;;;4.76;69.19
77723;BME280;67811;42.656;23.394;2024-02-14T09:26:03;95210.84;;;4.85;67.77
77723;BME280;67811;42.656;23.394;2024-02-14T09:30:08;95204.41;;;4.80;68.16
77723;BME280;67811;42.656;23.394;2024-02-14T09:34:13;95211.09;;;4.64;68.41
77723;BME280;67811;42.656;23.394;2024-02-14T09:38:19;95221.03;;;4.61;69.17
77723;BME280;67811;42.656;23.394;2024-02-14T09:42:44;95206.66;;;4.65;68.80
77723;BME280;67811;42.656;23.394;2024-02-14T09:46:56;95200.63;;;4.55;68.63
77723;BME280;67811;42.656;23.394;2024-02-14T09:51:02;95206.66;;;4.65;69.41
77723;BME280;67811;42.656;23.394;2024-02-14T09:55:09;95209.41;;;4.73;68.66
77723;BME280;67811;42.656;23.394;2024-02-14T09:59:15;95205.97;;;4.72;68.84
77723;BME280;67811;42.656;23.394;2024-02-14T10:03:20;95203.06;;;4.66;68.44
77723;BME280;67811;42.656;23.394;2024-02-14T10:07:25;95210.13;;;4.65;68.72
77723;BME280;67811;42.656;23.394;2024-02-14T10:11:31;95199.72;;;4.73;68.51
77723;BME280;67811;42.656;23.394;2024-02-14T10:15:36;95216.97;;;4.76;68.81
77723;BME280;67811;42.656;23.394;2024-02-14T10:19:42;95203.56;;;4.79;68.24
77723;BME280;67811;42.656;23.394;2024-02-14T10:23:47;95204.88;;;4.65;66.88
77723;BME280;67811;42.656;23.394;2024-02-14T10:27:55;95209.72;;;4.60;67.47
77723;BME280;67811;42.656;23.394;2024-02-14T10:32:00;95207.53;;;4.56;67.26
77723;BME280;67811;42.656;23.394;2024-02-14T10:36:07;95204.09;;;4.55;67.26
77723;BME280;67811;42.656;23.394;2024-02-14T10:40:13;95209.88;;;4.59;67.35
77723;BME280;67811;42.656;23.394;2024-02-14T10:44:18;95201.84;;;4.60;66.80
77723;BME280;67811;42.656;23.394;2024-02-14T10:48:24;95195.75;;;4.69;65.85
77723;BME280;67811;42.656;23.394;2024-02-14T10:52:31;95203.75;;;4.68;66.46
77723;BME280;67811;42.656;23.394;2024-02-14T10:56:41;95206.88;;;4.81;65.95
77723;BME280;67811;42.656;23.394;2024-02-14T11:00:47;95204.25;;;4.81;65.48
77723;BME280;67811;42.656;23.394;2024-02-14T11:04:53;95210.06;;;4.75;65.62
77723;BME280;67811;42.656;23.394;2024-02-14T11:09:03;95211.00;;;4.84;64.88
77723;BME280;67811;42.656;23.394;2024-02-14T11:13:15;95209.50;;;4.81;65.06
77723;BME280;67811;42.656;23.394;2024-02-14T11:17:20;95209.72;;;4.88;64.62
77723;BME280;67811;42.656;23.394;2024-02-14T11:21:28;95193.38;;;4.94;64.29
77723;BME280;67811;42.656;23.394;2024-02-14T11:25:35;95210.13;;;4.93;64.86
77723;BME280;67811;42.656;23.394;2024-02-14T11:29:50;95205.09;;;4.99;64.03
77723;BME280;67811;42.656;23.394;2024-02-14T11:33:55;95209.41;;;5.00;64.03
77723;BME280;67811;42.656;23.394;2024-02-14T11:38:01;95203.16;;;5.01;64.52
77723;BME280;67811;42.656;23.394;2024-02-14T11:42:07;95200.22;;;5.05;64.35
77723;BME280;67811;42.656;23.394;2024-02-14T11:46:13;95193.09;;;4.97;64.72
77723;BME280;67811;42.656;23.394;2024-02-14T11:50:18;95205.56;;;4.95;64.58
77723;BME280;67811;42.656;23.394;2024-02-14T11:54:24;95199.56;;;5.02;64.65
77723;BME280;67811;42.656;23.394;2024-02-14T11:58:29;95205.63;;;5.03;64.12
77723;BME280;67811;42.656;23.394;2024-02-14T12:02:34;95192.72;;;5.10;64.38
77723;BME280;67811;42.656;23.394;2024-02-14T12:06:40;95193.03;;;5.07;64.22
77723;BME280;67811;42.656;23.394;2024-02-14T12:10:46;95194.53;;;5.09;63.86
77723;BME280;67811;42.656;23.394;2024-02-14T12:14:52;95193.56;;;5.10;63.71
77723;BME280;67811;42.656;23.394;2024-02-14T12:19:04;95183.75;;;5.12;63.76
77723;BME280;67811;42.656;23.394;2024-02-14T12:23:16;95193.34;;;5.21;63.48
77723;BME280;67811;42.656;23.394;2024-02-14T12:27:22;95184.13;;;5.17;63.17
77723;BME280;67811;42.656;23.394;2024-02-14T12:31:27;95179.91;;;5.24;63.23
77723;BME280;67811;42.656;23.394;2024-02-14T12:35:34;95186.09;;;5.33;62.92
77723;BME280;67811;42.656;23.394;2024-02-14T12:39:39;95179.97;;;5.33;62.91
77723;BME280;67811;42.656;23.394;2024-02-14T12:43:44;95186.38;;;5.30;62.99
77723;BME280;67811;42.656;23.394;2024-02-14T12:47:49;95187.13;;;5.40;62.87
77723;BME280;67811;42.656;23.394;2024-02-14T12:51:55;95199.56;;;5.38;62.75
77723;BME280;67811;42.656;23.394;2024-02-14T12:56:00;95193.75;;;5.44;62.75
77723;BME280;67811;42.656;23.394;2024-02-14T13:00:06;95192.31;;;5.50;62.49
77723;BME280;67811;42.656;23.394;2024-02-14T13:04:12;95198.06;;;5.53;62.72
77723;BME280;67811;42.656;23.394;2024-02-14T13:08:17;95202.06;;;5.58;61.74
77723;BME280;67811;42.656;23.394;2024-02-14T13:12:22;95203.03;;;5.57;62.54
77723;BME280;67811;42.656;23.394;2024-02-14T13:16:27;95206.09;;;5.70;62.17
77723;BME280;67811;42.656;23.394;2024-02-14T13:20:32;95209.25;;;5.73;61.19
77723;BME280;67811;42.656;23.394;2024-02-14T13:24:38;95209.53;;;5.70;61.09
77723;BME280;67811;42.656;23.394;2024-02-14T13:28:43;95206.91;;;5.70;61.24
77723;BME280;67811;42.656;23.394;2024-02-14T13:32:48;95210.09;;;5.74;61.30
77723;BME280;67811;42.656;23.394;2024-02-14T13:36:54;95204.75;;;5.84;60.87
77723;BME280;67811;42.656;23.394;2024-02-14T13:40:59;95204.16;;;5.72;60.37
77723;BME280;67811;42.656;23.394;2024-02-14T13:45:05;95208.81;;;5.78;60.87
77723;BME280;67811;42.656;23.394;2024-02-14T13:49:11;95199.63;;;5.82;60.50
77723;BME280;67811;42.656;23.394;2024-02-14T13:53:16;95207.16;;;5.77;60.72
77723;BME280;67811;42.656;23.394;2024-02-14T13:57:22;95213.41;;;5.94;60.30
77723;BME280;67811;42.656;23.394;2024-02-14T14:01:27;95209.47;;;5.98;59.43
77723;BME280;67811;42.656;23.394;2024-02-14T14:05:32;95215.88;;;5.95;59.73
77723;BME280;67811;42.656;23.394;2024-02-14T14:09:37;95210.44;;;5.97;59.78
77723;BME280;67811;42.656;23.394;2024-02-14T14:13:43;95220.00;;;5.98;59.35
77723;BME280;67811;42.656;23.394;2024-02-14T14:17:48;95223.59;;;5.97;59.42
77723;BME280;67811;42.656;23.394;2024-02-14T14:21:53;95210.81;;;6.02;58.84
77723;BME280;67811;42.656;23.394;2024-02-14T14:25:59;95218.88;;;6.00;59.09
77723;BME280;67811;42.656;23.394;2024-02-14T14:30:05;95222.31;;;6.01;59.06
77723;BME280;67811;42.656;23.394;2024-02-14T14:34:10;95228.44;;;6.10;58.84
77723;BME280;67811;42.656;23.394;2024-02-14T14:38:15;95230.78;;;6.13;58.96
77723;BME280;67811;42.656;23.394;2024-02-14T14:42:21;95238.22;;;6.17;58.90
77723;BME280;67811;42.656;23.394;2024-02-14T14:46:26;95235.44;;;6.19;58.96
77723;BME280;67811;42.656;23.394;2024-02-14T14:50:31;95238.16;;;6.09;59.45
77723;BME280;67811;42.656;23.394;2024-02-14T14:54:36;95241.50;;;6.19;58.42
77723;BME280;67811;42.656;23.394;2024-02-14T14:58:42;95243.31;;;6.19;58.93
77723;BME280;67811;42.656;23.394;2024-02-14T15:02:47;95241.06;;;6.24;58.81
77723;BME280;67811;42.656;23.394;2024-02-14T15:06:52;95242.72;;;6.25;57.80
77723;BME280;67811;42.656;23.394;2024-02-14T15:10:57;95242.78;;;6.15;58.34
77723;BME280;67811;42.656;23.394;2024-02-14T15:15:03;95248.69;;;6.09;58.12
77723;BME280;67811;42.656;23.394;2024-02-14T15:19:09;95244.03;;;6.03;58.37
77723;BME280;67811;42.656;23.394;2024-02-14T15:23:14;95249.50;;;6.10;58.34
77723;BME280;67811;42.656;23.394;2024-02-14T15:27:19;95254.25;;;6.06;57.96
77723;BME280;67811;42.656;23.394;2024-02-14T15:31:25;95263.50;;;6.10;57.97
77723;BME280;67811;42.656;23.394;2024-02-14T15:35:30;95263.88;;;5.97;57.65
77723;BME280;67811;42.656;23.394;2024-02-14T15:39:35;95274.41;;;5.97;57.26
77723;BME280;67811;42.656;23.394;2024-02-14T15:43:41;95269.19;;;5.88;57.51
77723;BME280;67811;42.656;23.394;2024-02-14T15:47:46;95282.66;;;5.85;57.25
77723;BME280;67811;42.656;23.394;2024-02-14T15:51:51;95277.56;;;5.83;58.07
77723;BME280;67811;42.656;23.394;2024-02-14T15:55:57;95288.72;;;5.85;57.38
77723;BME280;67811;42.656;23.394;2024-02-14T16:00:03;95294.97;;;5.84;58.08
77723;BME280;67811;42.656;23.394;2024-02-14T16:04:08;95312.84;;;5.80;57.58
77723;BME280;67811;42.656;23.394;2024-02-14T16:08:15;95316.63;;;5.78;57.72
77723;BME280;67811;42.656;23.394;2024-02-14T16:12:20;95320.22;;;5.77;57.44
77723;BME280;67811;42.656;23.394;2024-02-14T16:16:27;95311.56;;;5.67;58.20
77723;BME280;67811;42.656;23.394;2024-02-14T16:20:32;95323.28;;;5.72;58.01
77723;BME280;67811;42.656;23.394;2024-02-14T16:24:38;95325.16;;;5.62;58.30
77723;BME280;67811;42.656;23.394;2024-02-14T16:28:43;95337.16;;;5.65;58.40
77723;BME280;67811;42.656;23.394;2024-02-14T16:32:48;95345.75;;;5.67;58.82
77723;BME280;67811;42.656;23.394;2024-02-14T16:36:54;95358.19;;;5.65;57.82
77723;BME280;67811;42.656;23.394;2024-02-14T16:40:59;95360.59;;;5.58;58.49
77723;BME280;67811;42.656;23.394;2024-02-14T16:45:05;95363.53;;;5.55;58.66
77723;BME280;67811;42.656;23.394;2024-02-14T16:49:10;95364.47;;;5.54;58.07
77723;BME280;67811;42.656;23.394;2024-02-14T16:53:15;95370.88;;;5.51;58.65
77723;BME280;67811;42.656;23.394;2024-02-14T16:57:20;95366.72;;;5.49;58.37
77723;BME280;67811;42.656;23.394;2024-02-14T17:01:26;95369.94;;;5.43;58.41
77723;BME280;67811;42.656;23.394;2024-02-14T17:05:31;95381.75;;;5.39;58.31
77723;BME280;67811;42.656;23.394;2024-02-14T17:09:36;95387.00;;;5.39;58.28
77723;BME280;67811;42.656;23.394;2024-02-14T17:13:42;95381.22;;;5.25;58.89
77723;BME280;67811;42.656;23.394;2024-02-14T17:17:47;95384.25;;;5.31;58.36
77723;BME280;67811;42.656;23.394;2024-02-14T17:21:53;95376.47;;;5.39;58.51
77723;BME280;67811;42.656;23.394;2024-02-14T17:25:58;95378.75;;;5.24;58.68
77723;BME280;67811;42.656;23.394;2024-02-14T17:30:04;95379.84;;;5.21;58.01
77723;BME280;67811;42.656;23.394;2024-02-14T17:34:09;95379.59;;;5.15;58.23
77723;BME280;67811;42.656;23.394;2024-02-14T17:38:14;95389.00;;;5.17;59.95
77723;BME280;67811;42.656;23.394;2024-02-14T17:42:19;95385.44;;;5.09;58.59
77723;BME280;67811;42.656;23.394;2024-02-14T17:46:25;95385.28;;;5.10;58.59
77723;BME280;67811;42.656;23.394;2024-02-14T17:50:30;95381.16;;;5.08;58.62
77723;BME280;67811;42.656;23.394;2024-02-14T17:54:35;95386.13;;;5.11;58.39
77723;BME280;67811;42.656;23.394;2024-02-14T17:58:40;95393.75;;;5.04;58.56
77723;BME280;67811;42.656;23.394;2024-02-14T18:02:46;95394.03;;;5.01;58.32
77723;BME280;67811;42.656;23.394;2024-02-14T18:06:51;95391.13;;;4.94;58.61
77723;BME280;67811;42.656;23.394;2024-02-14T18:10:56;95388.50;;;4.94;58.73
77723;BME280;67811;42.656;23.394;2024-02-14T18:15:01;95398.50;;;4.91;58.93
77723;BME280;67811;42.656;23.394;2024-02-14T18:19:07;95393.09;;;4.92;59.35
77723;BME280;67811;42.656;23.394;2024-02-14T18:23:12;95404.84;;;4.88;58.52
77723;BME280;67811;42.656;23.394;2024-02-14T18:27:17;95402.38;;;4.87;58.86
77723;BME280;67811;42.656;23.394;2024-02-14T18:31:22;95409.56;;;4.85;58.72
77723;BME280;67811;42.656;23.394;2024-02-14T18:35:28;95400.88;;;4.84;58.74
77723;BME280;67811;42.656;23.394;2024-02-14T18:39:33;95407.63;;;4.77;59.28
77723;BME280;67811;42.656;23.394;2024-02-14T18:43:38;95405.16;;;4.75;59.02
77723;BME280;67811;42.656;23.394;2024-02-14T18:47:43;95411.22;;;4.76;59.51
77723;BME280;67811;42.656;23.394;2024-02-14T18:51:49;95418.97;;;4.78;59.22
77723;BME280;67811;42.656;23.394;2024-02-14T18:55:54;95421.72;;;4.76;59.08
77723;BME280;67811;42.656;23.394;2024-02-14T18:59:59;95419.94;;;4.67;58.95
77723;BME280;67811;42.656;23.394;2024-02-14T19:04:04;95422.88;;;4.64;59.03
77723;BME280;67811;42.656;23.394;2024-02-14T19:08:10;95435.16;;;4.73;59.21
77723;BME280;67811;42.656;23.394;2024-02-14T19:12:15;95436.41;;;4.69;59.22
77723;BME280;67811;42.656;23.394;2024-02-14T19:16:21;95433.91;;;4.67;59.24
77723;BME280;67811;42.656;23.394;2024-02-14T19:20:26;95436.41;;;4.69;59.54
77723;BME280;67811;42.656;23.394;2024-02-14T19:24:32;95442.75;;;4.66;59.25
77723;BME280;67811;42.656;23.394;2024-02-14T19:28:37;95438.06;;;4.60;59.51
77723;BME280;67811;42.656;23.394;2024-02-14T19:32:43;95428.53;;;4.59;59.25
77723;BME280;67811;42.656;23.394;2024-02-14T19:36:48;95427.84;;;4.57;59.30
77723;BME280;67811;42.656;23.394;2024-02-14T19:40:53;95432.53;;;4.54;59.07
77723;BME280;67811;42.656;23.394;2024-02-14T19:44:58;95440.56;;;4.52;59.18
77723;BME280;67811;42.656;23.394;2024-02-14T19:49:04;95428.41;;;4.51;59.37
77723;BME280;67811;42.656;23.394;2024-02-14T19:53:09;95420.69;;;4.40;59.61
77723;BME280;67811;42.656;23.394;2024-02-14T19:57:14;95423.56;;;4.37;60.06
77723;BME280;67811;42.656;23.394;2024-02-14T20:01:20;95431.69;;;4.34;60.39
77723;BME280;67811;42.656;23.394;2024-02-14T20:05:25;95423.28;;;4.30;60.39
77723;BME280;67811;42.656;23.394;2024-02-14T20:09:30;95422.72;;;4.27;60.62
77723;BME280;67811;42.656;23.394;2024-02-14T20:13:35;95416.09;;;4.32;60.29
77723;BME280;67811;42.656;23.394;2024-02-14T20:17:40;95424.28;;;4.29;60.52
77723;BME280;67811;42.656;23.394;2024-02-14T20:21:46;95433.09;;;4.28;60.78
77723;BME280;67811;42.656;23.394;2024-02-14T20:25:51;95422.06;;;4.25;60.69
77723;BME280;67811;42.656;23.394;2024-02-14T20:29:56;95424.66;;;4.15;60.96
77723;BME280;67811;42.656;23.394;2024-02-14T20:34:02;95430.47;;;4.09;60.92
77723;BME280;67811;42.656;23.394;2024-02-14T20:38:07;95429.63;;;4.08;61.46
77723;BME280;67811;42.656;23.394;2024-02-14T20:42:12;95437.34;;;4.10;61.28
77723;BME280;67811;42.656;23.394;2024-02-14T20:46:17;95435.56;;;4.10;61.89
77723;BME280;67811;42.656;23.394;2024-02-14T20:50:23;95434.72;;;4.10;61.45
77723;BME280;67811;42.656;23.394;2024-02-14T20:54:28;95428.78;;;3.98;61.74
77723;BME280;67811;42.656;23.394;2024-02-14T20:58:35;95440.94;;;3.99;61.98
77723;BME280;67811;42.656;23.394;2024-02-14T21:02:40;95436.25;;;4.03;61.64
77723;BME280;67811;42.656;23.394;2024-02-14T21:06:46;95436.09;;;3.94;61.24
77723;BME280;67811;42.656;23.394;2024-02-14T21:10:51;95431.81;;;3.93;61.75
77723;BME280;67811;42.656;23.394;2024-02-14T21:14:56;95436.38;;;3.91;61.93
77723;BME280;67811;42.656;23.394;2024-02-14T21:19:03;95438.72;;;3.85;61.91
77723;BME280;67811;42.656;23.394;2024-02-14T21:23:08;95429.31;;;3.82;62.14
77723;BME280;67811;42.656;23.394;2024-02-14T21:27:13;95440.63;;;3.83;61.58
77723;BME280;67811;42.656;23.394;2024-02-14T21:31:18;95434.69;;;3.81;61.95
77723;BME280;67811;42.656;23.394;2024-02-14T21:35:24;95440.09;;;3.79;61.84
77723;BME280;67811;42.656;23.394;2024-02-14T21:39:29;95445.31;;;3.79;62.27